Time;durP1;ratioP1;P1;durP2;ratioP2;P2;SDS_P1;SDS_P2;PMS_P1;PMS_P2;Temp;Humidity;BMP_temperature;BMP_pressure;BME280_temperature;BME280_humidity;BME280_pressure;Samples;Min_cycle;Max_cycle;Signal;HPM_P1;HPM_P2
2022/06/28 00:01:24;;;;;;;6.00;3.28;;;20.90;99.90;;;;;;5207282;28;20029;-74
2022/06/28 00:03:55;;;;;;;4.53;3.03;;;21.50;99.90;;;;;;5208240;28;20478;-75
2022/06/28 00:06:26;;;;;;;7.38;3.17;;;21.50;99.90;;;;;;5208028;28;20076;-84
2022/06/28 00:08:56;;;;;;;2.70;2.50;;;21.20;99.90;;;;;;5208025;28;20025;-75
2022/06/28 00:11:27;;;;;;;3.05;2.75;;;22.40;99.90;;;;;;5208068;28;20522;-78
2022/06/28 00:13:58;;;;;;;3.92;2.50;;;22.40;99.90;;;;;;5207922;28;20508;-74
2022/06/28 00:16:29;;;;;;;4.53;2.63;;;22.40;99.90;;;;;;5207854;28;20163;-84
2022/06/28 00:19:00;;;;;;;4.82;2.65;;;22.60;99.90;;;;;;5207984;28;20021;-84
2022/06/28 00:21:30;;;;;;;5.85;2.78;;;22.60;99.90;;;;;;5207735;28;20703;-81
2022/06/28 00:24:01;;;;;;;4.68;2.30;;;22.70;99.90;;;;;;5207761;28;20018;-78
2022/06/28 00:26:32;;;;;;;3.63;2.75;;;22.70;99.90;;;;;;5207506;28;20045;-74
2022/06/28 00:29:03;;;;;;;7.53;2.58;;;22.80;99.90;;;;;;5207866;28;20033;-84
2022/06/28 00:31:34;;;;;;;6.40;2.70;;;22.80;99.90;;;;;;5207655;28;20018;-75
2022/06/28 00:34:05;;;;;;;4.97;2.92;;;22.70;99.90;;;;;;5207527;28;20048;-83
2022/06/28 00:36:36;;;;;;;4.90;2.55;;;22.80;99.90;;;;;;5207670;28;20069;-75
2022/06/28 00:39:07;;;;;;;3.72;2.72;;;22.80;99.90;;;;;;5207232;28;20029;-74
2022/06/28 00:41:38;;;;;;;5.32;2.30;;;22.80;99.90;;;;;;5207487;28;20076;-75
2022/06/28 00:44:13;;;;;;;8.20;3.20;;;22.80;99.90;;;;;;5207389;28;20025;-84
2022/06/28 00:46:44;;;;;;;7.90;2.83;;;22.70;99.90;;;;;;5207405;28;20579;-75
2022/06/28 00:49:15;;;;;;;5.50;2.65;;;22.70;99.90;;;;;;5207476;28;20045;-75
2022/06/28 00:51:46;;;;;;;3.45;2.58;;;22.80;99.90;;;;;;5207195;28;20171;-75
2022/06/28 00:54:16;;;;;;;6.47;2.83;;;22.70;99.90;;;;;;5207583;28;20037;-75
2022/06/28 00:56:47;;;;;;;6.85;3.00;;;22.70;99.90;;;;;;5206883;28;20481;-75
2022/06/28 00:59:18;;;;;;;5.10;2.92;;;22.70;99.90;;;;;;5207037;28;20057;-84
2022/06/28 01:01:49;;;;;;;6.93;2.63;;;22.70;99.90;;;;;;5222689;28;20061;-75
2022/06/28 01:04:19;;;;;;;11.35;3.22;;;22.70;99.90;;;;;;5207196;28;20527;-84
2022/06/28 01:06:52;;;;;;;6.43;2.90;;;22.70;99.90;;;;;;5207128;28;20022;-85
2022/06/28 01:09:22;;;;;;;5.40;2.85;;;22.70;99.90;;;;;;5207121;28;20115;-74
2022/06/28 01:11:53;;;;;;;4.72;2.75;;;22.70;99.90;;;;;;5222461;28;20052;-74
2022/06/28 01:14:24;;;;;;;3.72;2.53;;;22.70;99.90;;;;;;5207160;28;20025;-75
2022/06/28 01:16:55;;;;;;;5.30;2.72;;;22.70;99.90;;;;;;5206850;28;20056;-74
2022/06/28 01:19:26;;;;;;;9.82;2.97;;;22.70;99.90;;;;;;5206256;28;20374;-75
2022/06/28 01:21:59;;;;;;;5.50;2.90;;;22.70;99.90;;;;;;5206831;28;20104;-74
2022/06/28 01:24:29;;;;;;;7.00;2.85;;;22.70;99.90;;;;;;5206937;28;20025;-84
2022/06/28 01:27:00;;;;;;;8.00;3.28;;;22.70;99.90;;;;;;5206788;28;20045;-84
2022/06/28 01:29:32;;;;;;;5.65;2.72;;;22.60;99.90;;;;;;5206829;28;20025;-74
2022/06/28 01:32:03;;;;;;;5.55;2.78;;;22.60;99.90;;;;;;5206821;28;20037;-84
2022/06/28 01:34:34;;;;;;;6.68;3.00;;;22.50;99.90;;;;;;5206768;28;20410;-74
2022/06/28 01:37:05;;;;;;;6.20;3.20;;;22.40;99.90;;;;;;5206706;28;20045;-85
2022/06/28 01:39:37;;;;;;;6.75;2.90;;;22.40;99.90;;;;;;5206659;28;20529;-74
2022/06/28 01:42:08;;;;;;;6.60;3.10;;;22.50;99.90;;;;;;5206798;28;20048;-74
2022/06/28 01:44:41;;;;;;;9.32;3.50;;;22.40;99.90;;;;;;5206513;28;20378;-75
2022/06/28 01:47:17;;;;;;;6.07;3.03;;;22.40;99.90;;;;;;5206595;28;20029;-77
2022/06/28 01:49:49;;;;;;;4.30;3.03;;;22.30;99.90;;;;;;5206542;28;20025;-75
2022/06/28 01:52:20;;;;;;;7.95;3.40;;;22.40;99.90;;;;;;5206536;28;20040;-75
2022/06/28 01:54:51;;;;;;;6.22;3.08;;;22.40;99.90;;;;;;5206439;28;20075;-84
2022/06/28 01:57:22;;;;;;;4.57;3.55;;;22.30;99.90;;;;;;5206272;28;20049;-83
2022/06/28 01:59:53;;;;;;;13.15;3.33;;;22.40;99.90;;;;;;5206459;28;20022;-74
2022/06/28 02:02:24;;;;;;;6.80;3.80;;;22.40;99.90;;;;;;5206614;28;20450;-75
2022/06/28 02:04:54;;;;;;;7.65;3.35;;;22.40;99.90;;;;;;5206685;28;20101;-74
2022/06/28 02:07:25;;;;;;;8.77;3.63;;;22.40;99.90;;;;;;5206528;28;20473;-84
2022/06/28 02:09:56;;;;;;;10.27;3.97;;;22.40;99.90;;;;;;5206562;28;20024;-75
2022/06/28 02:12:28;;;;;;;7.65;3.70;;;22.40;99.90;;;;;;5206394;28;20388;-74
2022/06/28 02:14:59;;;;;;;10.77;4.20;;;22.40;99.90;;;;;;5206604;28;20025;-74
2022/06/28 02:17:30;;;;;;;12.55;4.75;;;22.30;99.90;;;;;;5206279;28;20151;-84
2022/06/28 02:20:01;;;;;;;16.23;3.83;;;22.40;99.90;;;;;;5206428;28;20109;-76
2022/06/28 02:22:32;;;;;;;7.65;3.65;;;22.30;99.90;;;;;;5206281;28;20033;-82
2022/06/28 02:25:04;;;;;;;12.35;4.30;;;22.30;99.90;;;;;;5221749;28;20028;-75
2022/06/28 02:27:34;;;;;;;7.53;3.50;;;22.30;99.90;;;;;;5206103;28;20457;-74
2022/06/28 02:30:06;;;;;;;11.93;4.30;;;22.20;99.90;;;;;;5206278;28;20038;-75
2022/06/28 02:32:37;;;;;;;13.32;4.47;;;22.30;99.90;;;;;;5208235;28;20087;-84
2022/06/28 02:40:46;;;;;;;12.55;4.75;;;22.20;99.90;;;;;;5209804;28;20064;-74
2022/06/28 02:43:17;;;;;;;10.93;4.75;;;22.20;99.90;;;;;;5208432;28;20045;-74
2022/06/28 02:45:49;;;;;;;15.48;4.40;;;22.20;99.90;;;;;;5209649;28;20022;-74
2022/06/28 02:48:20;;;;;;;10.15;4.10;;;22.20;99.90;;;;;;5209704;28;20060;-74
2022/06/28 02:50:51;;;;;;;11.20;4.80;;;22.20;99.90;;;;;;5209342;28;20083;-80
2022/06/28 02:53:21;;;;;;;8.20;4.32;;;22.20;99.90;;;;;;5209352;28;20025;-79
2022/06/28 02:55:52;;;;;;;11.02;4.60;;;22.20;99.90;;;;;;5209251;28;20052;-74
2022/06/28 02:58:23;;;;;;;15.20;4.47;;;22.30;99.90;;;;;;5209204;28;20083;-75
2022/06/28 03:00:54;;;;;;;10.15;4.57;;;22.30;99.90;;;;;;5209331;28;20457;-74
2022/06/28 03:03:24;;;;;;;13.65;4.72;;;22.30;99.90;;;;;;5209563;28;20527;-74
2022/06/28 03:05:55;;;;;;;13.75;5.13;;;22.20;99.90;;;;;;5224741;28;20029;-84
2022/06/28 03:08:26;;;;;;;11.73;4.53;;;22.20;99.90;;;;;;5209184;28;20060;-75
2022/06/28 03:10:57;;;;;;;9.52;4.32;;;22.20;99.90;;;;;;5209217;28;20009;-74
2022/06/28 03:13:28;;;;;;;15.95;4.15;;;22.10;99.90;;;;;;5208924;28;20030;-84
2022/06/28 03:15:59;;;;;;;18.35;4.65;;;22.20;99.90;;;;;;5224365;28;20025;-83
2022/06/28 03:18:29;;;;;;;10.88;4.00;;;22.20;99.90;;;;;;5209183;28;20080;-84
2022/06/28 03:21:00;;;;;;;15.57;4.70;;;22.20;99.90;;;;;;5209077;28;20453;-83
2022/06/28 03:23:31;;;;;;;14.07;4.28;;;22.30;99.90;;;;;;5208977;28;20369;-84
2022/06/28 03:26:02;;;;;;;13.32;4.85;;;22.30;99.90;;;;;;5223962;28;20164;-82
2022/06/28 03:28:33;;;;;;;13.30;4.47;;;22.10;99.90;;;;;;5208957;28;20064;-74
2022/06/28 03:31:04;;;;;;;17.30;4.30;;;22.00;99.90;;;;;;5208635;28;20116;-75
2022/06/28 03:33:35;;;;;;;13.07;4.45;;;22.10;99.90;;;;;;5208871;28;20021;-74
2022/06/28 03:36:05;;;;;;;15.07;4.85;;;22.10;99.90;;;;;;5208597;28;20378;-83
2022/06/28 03:38:36;;;;;;;15.63;4.60;;;22.10;99.90;;;;;;5208591;28;20069;-83
2022/06/28 03:41:07;;;;;;;14.50;4.25;;;22.10;99.90;;;;;;5208545;28;20072;-84
2022/06/28 03:43:38;;;;;;;13.85;4.22;;;22.20;99.90;;;;;;5208164;28;20030;-74
2022/06/28 03:46:08;;;;;;;11.65;4.22;;;22.10;99.90;;;;;;5208424;28;20017;-74
2022/06/28 03:48:39;;;;;;;10.77;4.00;;;22.20;99.90;;;;;;5208491;28;20037;-81
2022/06/28 03:51:10;;;;;;;12.05;4.10;;;22.00;99.90;;;;;;5208451;28;20018;-84
2022/06/28 03:53:41;;;;;;;19.33;4.38;;;22.10;99.90;;;;;;5208149;28;20029;-83
2022/06/28 03:56:12;;;;;;;9.88;4.72;;;22.10;99.90;;;;;;5208143;28;20373;-75
2022/06/28 03:58:43;;;;;;;13.20;3.97;;;22.10;99.90;;;;;;5208184;28;20167;-84
2022/06/28 04:01:14;;;;;;;13.10;4.28;;;22.10;99.90;;;;;;5208191;28;20017;-84
2022/06/28 04:03:45;;;;;;;11.45;4.35;;;22.10;99.90;;;;;;5208158;28;20370;-81
2022/06/28 04:06:16;;;;;;;12.07;3.70;;;22.10;99.90;;;;;;5208131;28;20133;-75
2022/06/28 04:08:46;;;;;;;12.63;3.85;;;22.10;99.90;;;;;;5208214;28;20026;-84
2022/06/28 04:11:17;;;;;;;16.77;3.70;;;22.10;99.90;;;;;;5208084;28;20022;-75
2022/06/28 04:13:53;;;;;;;10.40;3.50;;;22.10;99.90;;;;;;5207907;28;20029;-75
2022/06/28 04:16:24;;;;;;;8.68;3.72;;;22.20;99.90;;;;;;5206647;28;20030;-75
2022/06/28 04:18:55;;;;;;;11.32;3.78;;;22.30;99.90;;;;;;5208070;28;20036;-74
2022/06/28 04:21:26;;;;;;;8.07;3.15;;;22.20;99.90;;;;;;5207701;28;20032;-74
2022/06/28 04:23:57;;;;;;;10.85;3.20;;;22.20;99.90;;;;;;5207816;28;20025;-74
2022/06/28 04:26:27;;;;;;;7.57;3.13;;;22.20;99.90;;;;;;5222809;28;20049;-75
2022/06/28 04:28:58;;;;;;;13.40;3.42;;;22.10;99.90;;;;;;5207647;28;20033;-81
2022/06/28 04:31:29;;;;;;;9.48;2.95;;;22.10;99.90;;;;;;5207720;28;20014;-84
2022/06/28 04:34:00;;;;;;;8.98;2.90;;;22.10;99.90;;;;;;5207574;28;20026;-84
2022/06/28 04:36:31;;;;;;;11.32;3.63;;;22.10;99.90;;;;;;5207717;28;20037;-74
2022/06/28 04:39:02;;;;;;;11.52;3.35;;;22.10;99.90;;;;;;5207499;28;20100;-74
2022/06/28 04:41:33;;;;;;;10.30;2.75;;;22.00;99.90;;;;;;5207505;28;20018;-74
2022/06/28 04:44:03;;;;;;;7.25;1.95;;;21.60;99.90;;;;;;5207395;28;20029;-73
2022/06/28 04:46:34;;;;;;;6.13;2.75;;;21.30;99.90;;;;;;5207392;28;20067;-72
2022/06/28 04:49:05;;;;;;;7.15;2.53;;;21.00;99.90;;;;;;5207250;28;20028;-72
2022/06/28 04:51:36;;;;;;;6.32;2.40;;;20.90;99.90;;;;;;5207240;28;20124;-82
2022/06/28 04:54:06;;;;;;;12.13;3.10;;;21.10;99.90;;;;;;5206630;28;20025;-79
2022/06/28 04:56:37;;;;;;;13.63;3.17;;;20.90;99.90;;;;;;5206872;28;20033;-73
2022/06/28 04:59:08;;;;;;;13.38;3.30;;;21.20;99.90;;;;;;5207211;28;20033;-73
2022/06/28 05:01:39;;;;;;;10.18;3.42;;;21.30;99.90;;;;;;5207245;28;20020;-81
2022/06/28 05:04:10;;;;;;;13.10;3.67;;;21.30;99.90;;;;;;5207107;28;20363;-81
2022/06/28 05:06:41;;;;;;;16.17;3.53;;;21.40;99.90;;;;;;5207001;28;20512;-73
2022/06/28 05:09:11;;;;;;;13.90;3.85;;;21.30;99.90;;;;;;5206832;28;20022;-74
2022/06/28 05:11:42;;;;;;;10.30;3.70;;;21.50;99.90;;;;;;5206979;28;20361;-73
2022/06/28 05:14:13;;;;;;;10.73;4.18;;;21.70;99.90;;;;;;5206904;28;20026;-73
2022/06/28 05:16:45;;;;;;;9.13;3.80;;;21.80;99.90;;;;;;5206812;28;20033;-81
2022/06/28 05:19:16;;;;;;;9.68;3.83;;;22.00;99.90;;;;;;5206716;28;20030;-73
2022/06/28 05:21:47;;;;;;;10.73;3.78;;;22.00;99.90;;;;;;5206651;28;20032;-73
2022/06/28 05:24:18;;;;;;;11.60;4.35;;;22.00;99.90;;;;;;5205543;28;20377;-73
2022/06/28 05:26:49;;;;;;;7.50;3.47;;;21.90;99.90;;;;;;5206487;28;20055;-73
2022/06/28 05:29:20;;;;;;;10.07;3.90;;;22.00;99.90;;;;;;5206773;28;20029;-73
2022/06/28 05:31:51;;;;;;;6.05;2.80;;;22.00;99.90;;;;;;5206857;28;20025;-82
2022/06/28 05:34:22;;;;;;;4.30;2.95;;;21.80;99.90;;;;;;5206679;28;20041;-74
2022/06/28 05:36:53;;;;;;;9.25;3.35;;;21.90;99.90;;;;;;5206658;28;20049;-73
2022/06/28 05:39:24;;;;;;;5.90;3.35;;;21.90;99.90;;;;;;5206720;28;20022;-73
2022/06/28 05:41:55;;;;;;;7.80;3.80;;;21.90;99.90;;;;;;5206737;28;20029;-82
2022/06/28 05:44:25;;;;;;;6.40;3.30;;;21.90;99.90;;;;;;5206654;28;20018;-73
2022/06/28 05:46:56;;;;;;;5.20;3.28;;;21.90;99.90;;;;;;5206604;28;20029;-73
2022/06/28 05:49:27;;;;;;;10.88;3.35;;;21.90;99.90;;;;;;5206562;28;20017;-82
2022/06/28 05:51:57;;;;;;;7.20;3.55;;;21.90;99.90;;;;;;5206504;28;20108;-79
2022/06/28 05:54:28;;;;;;;12.52;4.03;;;22.00;99.90;;;;;;5206632;28;20025;-82
2022/06/28 05:56:59;;;;;;;10.10;3.42;;;22.10;99.90;;;;;;5210239;28;20120;-73
2022/06/28 05:59:32;;;;;;;5.53;3.17;;;22.20;99.90;;;;;;5221197;28;20350;-83
2022/06/28 06:02:03;;;;;;;10.63;3.10;;;22.10;99.90;;;;;;5226780;28;20411;-83
2022/06/28 06:04:33;;;;;;;6.90;2.90;;;22.00;99.90;;;;;;5227255;28;20590;-82
2022/06/28 06:07:04;;;;;;;5.53;2.88;;;22.40;99.90;;;;;;5229989;28;20095;-80
2022/06/28 06:09:36;;;;;;;4.50;2.45;;;22.40;99.90;;;;;;5230900;28;20025;-73
2022/06/28 06:12:07;;;;;;;6.93;2.10;;;22.40;99.90;;;;;;5231138;28;20071;-73
2022/06/28 06:14:38;;;;;;;6.38;2.17;;;22.20;99.90;;;;;;5230916;28;20021;-74
2022/06/28 06:17:09;;;;;;;4.03;2.03;;;22.60;99.90;;;;;;5230656;28;20025;-73
2022/06/28 06:19:39;;;;;;;3.50;1.73;;;22.50;99.90;;;;;;5230721;28;20499;-82
2022/06/28 06:22:10;;;;;;;6.45;2.30;;;22.60;99.90;;;;;;5230697;28;20021;-73
2022/06/28 06:24:41;;;;;;;6.05;2.38;;;22.40;99.90;;;;;;5229363;28;20028;-73
2022/06/28 06:27:14;;;;;;;6.65;2.15;;;22.40;99.90;;;;;;5230269;28;20029;-82
2022/06/28 06:29:45;;;;;;;7.05;2.20;;;22.50;99.90;;;;;;5230698;28;20029;-73
2022/06/28 06:32:16;;;;;;;6.45;2.00;;;22.60;99.90;;;;;;5230475;28;20028;-82
2022/06/28 06:34:46;;;;;;;4.82;1.45;;;22.60;99.90;;;;;;5230573;28;20032;-73
2022/06/28 06:37:17;;;;;;;5.80;1.40;;;22.80;99.90;;;;;;5230303;28;20519;-73
2022/06/28 06:39:48;;;;;;;4.00;1.60;;;22.70;99.90;;;;;;5230215;28;20031;-73
2022/06/28 06:42:19;;;;;;;2.42;1.15;;;23.20;99.90;;;;;;5230537;28;20021;-73
2022/06/28 06:44:49;;;;;;;5.97;1.65;;;23.30;99.90;;;;;;5230314;28;20028;-74
2022/06/28 06:47:20;;;;;;;4.88;1.33;;;23.30;99.90;;;;;;5230255;28;20033;-73
2022/06/28 06:49:51;;;;;;;2.78;1.00;;;22.80;99.90;;;;;;5230165;28;20196;-73
2022/06/28 06:52:22;;;;;;;6.85;1.80;;;22.70;99.90;;;;;;5229993;28;20495;-77
2022/06/28 06:54:53;;;;;;;6.00;1.67;;;22.70;99.90;;;;;;5230157;28;20029;-83
2022/06/28 06:57:23;;;;;;;6.05;1.60;;;22.80;99.90;;;;;;5229786;28;20496;-73
2022/06/28 06:59:54;;;;;;;5.25;1.67;;;22.60;99.90;;;;;;5230106;28;20491;-73
2022/06/28 07:02:25;;;;;;;5.28;1.30;;;22.50;99.90;;;;;;5229950;28;20530;-83
2022/06/28 07:04:56;;;;;;;5.25;1.30;;;22.70;99.90;;;;;;5229896;28;20017;-83
2022/06/28 07:07:27;;;;;;;6.35;1.30;;;23.30;99.90;;;;;;5229835;28;20116;-82
2022/06/28 07:09:58;;;;;;;4.38;1.20;;;23.10;99.90;;;;;;5229795;28;20032;-73
2022/06/28 07:12:30;;;;;;;4.70;1.27;;;22.90;99.90;;;;;;5229758;28;20036;-73
2022/06/28 07:15:01;;;;;;;7.28;1.23;;;22.80;99.90;;;;;;5228419;28;20415;-74
2022/06/28 07:17:31;;;;;;;7.35;1.33;;;22.90;99.90;;;;;;5228644;28;20029;-75
2022/06/28 07:20:03;;;;;;;6.93;1.30;;;23.00;99.90;;;;;;5229633;28;20358;-74
2022/06/28 07:22:33;;;;;;;4.38;1.30;;;23.60;99.90;;;;;;5229570;28;20098;-73
2022/06/28 07:25:05;;;;;;;2.55;1.25;;;23.80;99.90;;;;;;5229628;28;20025;-73
2022/06/28 07:27:36;;;;;;;6.28;1.33;;;23.80;99.90;;;;;;5229205;28;20048;-84
2022/06/28 07:30:07;;;;;;;6.05;0.93;;;23.80;99.90;;;;;;5229494;28;20029;-74
2022/06/28 07:32:38;;;;;;;4.05;1.00;;;24.30;99.90;;;;;;5229459;28;20385;-77
2022/06/28 07:35:09;;;;;;;5.72;1.30;;;24.40;99.90;;;;;;5229285;28;20362;-73
2022/06/28 07:37:40;;;;;;;4.72;1.30;;;24.60;99.90;;;;;;5229168;28;20106;-82
2022/06/28 07:40:11;;;;;;;3.85;1.08;;;24.60;99.90;;;;;;5229306;28;20025;-74
2022/06/28 07:42:42;;;;;;;4.40;1.10;;;24.00;99.90;;;;;;5229090;28;20029;-74
2022/06/28 07:45:14;;;;;;;3.92;0.90;;;23.40;99.90;;;;;;5229120;28;20024;-73
2022/06/28 07:47:47;;;;;;;7.88;0.90;;;23.70;99.90;;;;;;5229019;28;20108;-73
2022/06/28 07:53:08;;;;;;;3.85;1.00;;;24.30;99.90;;;;;;5229238;28;20072;-73
2022/06/28 07:55:39;;;;;;;3.00;0.90;;;24.60;99.90;;;;;;5228697;28;20021;-82
2022/06/28 07:58:10;;;;;;;2.40;0.82;;;24.20;99.90;;;;;;5228730;28;20040;-83
2022/06/28 08:00:40;;;;;;;3.70;1.00;;;24.50;99.90;;;;;;5228743;28;20393;-84
2022/06/28 08:03:11;;;;;;;2.15;0.70;;;24.30;99.90;;;;;;5228830;28;20023;-73
2022/06/28 08:05:42;;;;;;;5.65;1.20;;;24.30;99.90;;;;;;5228664;28;20461;-74
2022/06/28 08:08:13;;;;;;;4.63;0.80;;;24.10;99.90;;;;;;5228703;28;20094;-74
2022/06/28 08:10:44;;;;;;;4.05;0.90;;;24.10;99.90;;;;;;5228522;28;20025;-73
2022/06/28 08:13:16;;;;;;;4.35;1.33;;;24.40;99.90;;;;;;5228537;28;20017;-77
2022/06/28 08:15:47;;;;;;;4.72;1.30;;;24.00;99.90;;;;;;5228548;28;20029;-74
2022/06/28 08:18:17;;;;;;;2.88;1.17;;;24.20;99.90;;;;;;5228061;28;20063;-73
2022/06/28 08:20:48;;;;;;;2.05;0.70;;;24.20;99.90;;;;;;5228497;28;20198;-84
2022/06/28 08:23:19;;;;;;;3.63;0.90;;;24.20;99.90;;;;;;5228410;28;20029;-83
2022/06/28 08:25:50;;;;;;;5.57;1.00;;;24.30;99.90;;;;;;5228095;28;20060;-73
2022/06/28 08:28:20;;;;;;;2.42;0.85;;;24.20;99.90;;;;;;5228133;28;20052;-75
2022/06/28 08:30:52;;;;;;;4.70;1.25;;;24.20;99.90;;;;;;5228316;28;20024;-73
2022/06/28 08:33:22;;;;;;;4.75;1.00;;;24.10;99.90;;;;;;5228168;28;20025;-84
2022/06/28 08:35:53;;;;;;;5.05;0.93;;;25.00;99.90;;;;;;5228288;28;20024;-73
2022/06/28 08:38:24;;;;;;;2.97;1.10;;;24.40;99.90;;;;;;5227833;28;20090;-73
2022/06/28 08:40:55;;;;;;;2.67;0.70;;;25.10;99.90;;;;;;5228074;28;20024;-74
2022/06/28 08:43:26;;;;;;;5.03;1.00;;;25.20;99.90;;;;;;5227943;28;20033;-83
2022/06/28 08:45:57;;;;;;;5.47;0.70;;;25.50;99.90;;;;;;5228175;28;20361;-83
2022/06/28 09:01:27;;;;;;;4.13;0.80;;;24.60;99.90;;;;;;5308558;27;20390;-85
2022/06/28 09:04:01;;;;;;;5.03;1.20;;;26.00;99.90;;;;;;5308517;28;20075;-75
2022/06/28 09:06:31;;;;;;;2.30;0.90;;;25.10;99.90;;;;;;5308383;28;20028;-85
2022/06/28 09:09:03;;;;;;;3.13;1.00;;;25.10;99.90;;;;;;5308312;28;20096;-74
2022/06/28 09:11:38;;;;;;;3.15;0.90;;;25.90;99.90;;;;;;5308361;28;20485;-84
2022/06/28 09:14:29;;;;;;;3.55;1.25;;;25.10;99.90;;;;;;5308371;28;20011;-74
2022/06/28 09:17:30;;;;;;;2.97;0.85;;;25.40;99.90;;;;;;5308435;27;20160;-84
2022/06/28 09:20:07;;;;;;;7.72;0.80;;;25.50;99.90;;;;;;5308022;28;20031;-85
2022/06/28 09:22:40;;;;;;;4.28;1.33;;;25.60;99.90;;;;;;5306804;28;20366;-81
2022/06/28 09:25:29;;;;;;;4.95;0.90;;;25.70;99.90;;;;;;5308140;27;20052;-85
2022/06/28 09:28:01;;;;;;;5.63;1.10;;;26.00;99.90;;;;;;5307907;27;20038;-74
2022/06/28 09:30:32;;;;;;;4.95;1.38;;;26.30;99.90;;;;;;5307600;27;20031;-74
2022/06/28 09:33:04;;;;;;;2.70;0.77;;;26.10;99.90;;;;;;5307751;27;20493;-74
2022/06/28 09:35:34;;;;;;;2.25;0.70;;;26.20;99.90;;;;;;5307774;27;20473;-74
2022/06/28 09:38:05;;;;;;;3.70;0.88;;;25.20;99.90;;;;;;5307642;27;20020;-85
2022/06/28 09:40:36;;;;;;;3.08;0.93;;;25.10;99.90;;;;;;5307737;27;20016;-84
2022/06/28 09:43:14;;;;;;;3.42;0.90;;;25.80;99.90;;;;;;5307766;28;20023;-74
2022/06/28 09:45:47;;;;;;;3.58;1.00;;;26.00;99.90;;;;;;5307557;27;20042;-86
2022/06/28 09:48:19;;;;;;;4.18;1.00;;;26.10;99.90;;;;;;5307509;27;20042;-84
2022/06/28 09:50:57;;;;;;;3.47;0.90;;;25.40;99.90;;;;;;5307266;27;20046;-75
2022/06/28 09:53:30;;;;;;;3.03;1.20;;;26.20;99.90;;;;;;5307550;27;20108;-83
2022/06/28 09:56:05;;;;;;;3.80;1.25;;;25.90;99.90;;;;;;5307436;27;20027;-84
2022/06/28 09:58:36;;;;;;;4.20;1.02;;;25.90;99.90;;;;;;5307400;28;20455;-85
2022/06/28 10:01:07;;;;;;;2.22;0.90;;;26.50;99.90;;;;;;5300234;27;20048;-74
2022/06/28 10:03:38;;;;;;;3.60;1.17;;;26.20;99.90;;;;;;5293071;28;20023;-85
2022/06/28 10:06:09;;;;;;;3.72;0.85;;;26.30;99.90;;;;;;5293127;28;20093;-85
2022/06/28 10:08:41;;;;;;;4.20;1.00;;;26.40;99.90;;;;;;5292968;28;20111;-74
2022/06/28 10:11:12;;;;;;;3.38;1.00;;;26.30;99.90;;;;;;5292854;28;20032;-74
2022/06/28 10:16:58;;;;;;;2.17;0.60;;;26.70;99.90;;;;;;5293192;28;20039;-84
2022/06/28 10:19:32;;;;;;;1.50;0.80;;;26.90;99.90;;;;;;5292779;28;20106;-85
2022/06/28 10:22:11;;;;;;;3.72;0.90;;;26.80;99.90;;;;;;5292455;28;20020;-74
2022/06/28 10:24:55;;;;;;;;;;;26.70;99.90;;;;;;5293083;28;20385;-73
2022/06/28 10:27:28;;;;;;;5.55;1.15;;;26.70;99.90;;;;;;5292493;28;19903;-85
2022/06/28 10:30:00;;;;;;;4.05;1.17;;;26.60;99.90;;;;;;5292558;28;20414;-85
2022/06/28 10:32:50;;;;;;;3.05;1.00;;;26.20;99.90;;;;;;5292444;28;20028;-79
2022/06/28 10:35:29;;;;;;;2.25;0.80;;;25.90;99.90;;;;;;5292539;28;20039;-85
2022/06/28 10:38:09;;;;;;;;;;;25.90;99.90;;;;;;5292955;28;20023;-84
2022/06/28 10:40:49;;;;;;;2.53;0.82;;;25.60;99.90;;;;;;5292205;28;19920;-85
2022/06/28 10:43:25;;;;;;;4.22;1.20;;;25.10;99.90;;;;;;5292309;28;20036;-85
2022/06/28 10:46:09;;;;;;;4.95;1.20;;;25.00;99.90;;;;;;5292398;28;20028;-85
2022/06/28 10:48:49;;;;;;;7.60;1.60;;;25.10;99.90;;;;;;5290872;28;20028;-74
2022/06/28 10:51:20;;;;;;;2.28;1.00;;;24.80;99.90;;;;;;5292079;28;20023;-85
2022/06/28 10:54:06;;;;;;;3.45;1.13;;;25.10;99.90;;;;;;5292134;28;20035;-74
2022/06/28 10:56:41;;;;;;;3.05;1.25;;;25.50;99.90;;;;;;5292107;28;20020;-84
2022/06/28 10:59:17;;;;;;;4.18;1.30;;;25.40;99.90;;;;;;5291679;28;20057;-74
2022/06/28 11:01:52;;;;;;;3.58;1.23;;;25.40;99.90;;;;;;5291864;28;20019;-84
2022/06/28 11:04:25;;;;;;;4.10;1.05;;;24.90;99.90;;;;;;5291960;28;20027;-84
2022/06/28 11:07:19;;;;;;;3.78;1.10;;;25.00;99.90;;;;;;5291869;28;20524;-78
2022/06/28 11:09:53;;;;;;;2.35;0.85;;;25.10;99.90;;;;;;5288525;28;20047;-85
2022/06/28 11:12:35;;;;;;;2.45;1.10;;;25.10;99.90;;;;;;5290722;28;20028;-75
2022/06/28 11:15:35;;;;;;;3.97;1.17;;;24.80;99.90;;;;;;5291866;28;20023;-75
2022/06/28 11:18:16;;;;;;;7.15;1.42;;;25.10;99.90;;;;;;5291657;28;20028;-75
2022/06/28 11:20:47;;;;;;;4.38;1.60;;;25.00;99.90;;;;;;5291397;28;20031;-74
2022/06/28 11:23:30;;;;;;;5.88;1.25;;;25.40;99.90;;;;;;5291428;27;20028;-74
2022/06/28 11:29:03;;;;;;;2.85;1.48;;;25.10;99.90;;;;;;5291440;28;20096;-84
2022/06/28 11:31:42;;;;;;;6.03;2.03;;;25.90;99.90;;;;;;5291273;28;20031;-86
2022/06/28 11:34:13;;;;;;;3.33;1.45;;;26.50;99.90;;;;;;5291540;28;20016;-85
2022/06/28 11:36:45;;;;;;;6.25;1.52;;;26.70;99.90;;;;;;5291191;28;20112;-86
2022/06/28 11:39:18;;;;;;;5.07;1.83;;;26.20;99.90;;;;;;5291215;28;20110;-74
2022/06/28 11:41:51;;;;;;;5.90;1.80;;;26.10;99.90;;;;;;5290977;28;20367;-74
2022/06/28 11:44:22;;;;;;;5.25;1.42;;;26.20;99.90;;;;;;5291256;28;20031;-74
2022/06/28 11:46:54;;;;;;;4.03;1.52;;;26.80;99.90;;;;;;5291141;28;20016;-75
2022/06/28 11:49:32;;;;;;;6.47;1.63;;;26.10;99.90;;;;;;5290973;28;20028;-85
2022/06/28 11:52:03;;;;;;;8.05;2.20;;;25.90;99.90;;;;;;5290821;28;20015;-74
2022/06/28 11:54:34;;;;;;;6.38;2.60;;;25.60;99.90;;;;;;5290973;28;20098;-85
2022/06/28 11:57:16;;;;;;;6.68;2.40;;;25.80;99.90;;;;;;5290814;28;20466;-85
2022/06/28 11:59:55;;;;;;;8.38;2.63;;;25.70;99.90;;;;;;5290640;28;20050;-83
2022/06/28 12:02:49;;;;;;;5.13;1.90;;;26.50;99.90;;;;;;5291058;28;20879;-82
2022/06/28 12:05:36;;;;;;;11.52;2.30;;;26.70;99.90;;;;;;5290800;28;20035;-74
2022/06/28 12:08:07;;;;;;;4.95;2.00;;;26.40;99.90;;;;;;5290521;28;20551;-85
2022/06/28 12:10:38;;;;;;;7.80;2.17;;;26.00;99.90;;;;;;5290534;28;20092;-85
2022/06/28 12:13:13;;;;;;;8.13;2.47;;;25.90;99.90;;;;;;5290833;28;20024;-84
2022/06/28 12:15:46;;;;;;;8.35;2.40;;;26.00;99.90;;;;;;5290531;28;20027;-74
2022/06/28 12:18:17;;;;;;;9.30;2.33;;;25.80;99.90;;;;;;5290578;28;20107;-74
2022/06/28 12:20:57;;;;;;;7.55;2.30;;;26.00;99.90;;;;;;5290380;28;20511;-85
2022/06/28 12:23:28;;;;;;;6.53;2.25;;;25.60;99.90;;;;;;5290265;28;20067;-83
2022/06/28 12:26:01;;;;;;;8.30;2.38;;;25.70;99.90;;;;;;5290368;28;20069;-76
2022/06/28 12:28:32;;;;;;;9.23;2.15;;;26.30;99.90;;;;;;5290259;28;20412;-74
2022/06/28 12:31:03;;;;;;;5.20;2.10;;;26.60;99.90;;;;;;5290119;28;20110;-74
2022/06/28 12:33:34;;;;;;;6.72;1.92;;;26.40;99.90;;;;;;5290228;28;20024;-74
2022/06/28 12:36:05;;;;;;;9.48;2.42;;;26.10;99.90;;;;;;5290263;28;20526;-74
2022/06/28 12:38:36;;;;;;;7.25;1.98;;;26.50;99.90;;;;;;5290225;28;20019;-74
2022/06/28 12:41:06;;;;;;;6.43;2.58;;;26.90;99.90;;;;;;5290061;28;20474;-74
2022/06/28 12:43:37;;;;;;;7.90;2.30;;;26.50;99.90;;;;;;5290291;28;20051;-84
2022/06/28 12:46:08;;;;;;;5.68;1.70;;;26.50;99.90;;;;;;5290239;28;20027;-84
2022/06/28 12:48:39;;;;;;;6.30;2.00;;;26.20;99.90;;;;;;5288923;28;20474;-74
2022/06/28 12:51:09;;;;;;;4.60;1.63;;;27.20;99.90;;;;;;5289901;28;20145;-84
2022/06/28 12:53:40;;;;;;;9.07;1.65;;;27.10;99.90;;;;;;5290201;28;20136;-77
2022/06/28 12:56:11;;;;;;;5.15;1.83;;;26.20;99.90;;;;;;5290153;28;20019;-75
2022/06/28 12:58:46;;;;;;;6.70;1.67;;;26.60;99.90;;;;;;5289809;28;20030;-75
2022/06/28 13:01:21;;;;;;;5.28;1.70;;;26.50;99.90;;;;;;5289837;28;20048;-74
2022/06/28 13:03:51;;;;;;;6.40;1.77;;;26.70;99.90;;;;;;5290137;28;20102;-74
2022/06/28 13:06:22;;;;;;;3.78;1.75;;;27.40;99.90;;;;;;5290015;28;20409;-74
2022/06/28 13:08:53;;;;;;;6.15;1.52;;;27.70;99.90;;;;;;5289965;28;20058;-74
2022/06/28 13:11:24;;;;;;;7.43;1.85;;;27.90;99.90;;;;;;5289844;28;20108;-75
2022/06/28 13:13:55;;;;;;;4.93;1.52;;;27.80;99.90;;;;;;5289890;28;20022;-84
2022/06/28 13:16:28;;;;;;;6.50;1.90;;;27.50;99.90;;;;;;5289793;28;20406;-83
2022/06/28 13:18:59;;;;;;;5.38;1.95;;;26.90;99.90;;;;;;5289860;28;20023;-83
2022/06/28 13:21:30;;;;;;;5.88;1.90;;;27.10;99.90;;;;;;5289724;28;20486;-84
2022/06/28 13:24:01;;;;;;;6.70;2.65;;;26.70;99.90;;;;;;5289654;28;20016;-74
2022/06/28 13:26:32;;;;;;;7.00;2.25;;;26.60;99.90;;;;;;5289772;28;20382;-84
2022/06/28 13:29:02;;;;;;;4.78;1.75;;;26.50;99.90;;;;;;5289511;28;20039;-83
2022/06/28 13:31:33;;;;;;;5.13;2.00;;;26.30;99.90;;;;;;5289693;28;20039;-84
2022/06/28 13:34:04;;;;;;;5.60;1.80;;;26.30;99.90;;;;;;5289716;28;20077;-74
2022/06/28 13:36:35;;;;;;;8.60;1.92;;;26.10;99.90;;;;;;5291463;28;20024;-74
2022/06/28 13:39:07;;;;;;;3.75;1.73;;;26.10;99.90;;;;;;5293767;27;20035;-74